sensor_id;sensor_type;location;lat;lon;timestamp;pressure;altitude;pressure_sealevel;temperature;humidity
61018;BME280;48171;51.550;5.434;2023-01-30T00:01:24;101885.69;;;4.06;100.00
61018;BME280;48171;51.550;5.434;2023-01-30T00:03:50;101864.75;;;4.06;100.00
61018;BME280;48171;51.550;5.434;2023-01-30T00:06:16;101856.13;;;4.09;100.00
61018;BME280;48171;51.550;5.434;2023-01-30T00:08:41;101853.00;;;4.19;100.00
61018;BME280;48171;51.550;5.434;2023-01-30T00:11:11;101850.25;;;4.16;100.00
61018;BME280;48171;51.550;5.434;2023-01-30T00:13:37;101875.91;;;4.26;100.00
61018;BME280;48171;51.550;5.434;2023-01-30T00:16:03;101865.41;;;4.25;100.00
61018;BME280;48171;51.550;5.434;2023-01-30T00:18:29;101849.06;;;4.32;100.00
61018;BME280;48171;51.550;5.434;2023-01-30T00:21:00;101847.41;;;4.34;100.00
61018;BME280;48171;51.550;5.434;2023-01-30T00:23:27;101855.09;;;4.29;100.00
61018;BME280;48171;51.550;5.434;2023-01-30T00:25:53;101849.19;;;4.35;100.00
61018;BME280;48171;51.550;5.434;2023-01-30T00:28:19;101861.53;;;4.39;100.00
61018;BME280;48171;51.550;5.434;2023-01-30T00:30:47;101865.94;;;4.40;100.00
61018;BME280;48171;51.550;5.434;2023-01-30T00:33:13;101846.59;;;4.35;100.00
61018;BME280;48171;51.550;5.434;2023-01-30T00:35:43;101839.66;;;4.37;100.00
61018;BME280;48171;51.550;5.434;2023-01-30T00:38:08;101846.00;;;4.44;100.00
61018;BME280;48171;51.550;5.434;2023-01-30T00:40:36;101827.59;;;4.40;100.00
61018;BME280;48171;51.550;5.434;2023-01-30T00:43:02;101817.88;;;4.38;100.00
61018;BME280;48171;51.550;5.434;2023-01-30T00:45:49;101833.06;;;4.48;100.00
61018;BME280;48171;51.550;5.434;2023-01-30T00:48:35;101833.19;;;4.51;100.00
61018;BME280;48171;51.550;5.434;2023-01-30T00:51:01;101819.00;;;4.45;100.00
61018;BME280;48171;51.550;5.434;2023-01-30T00:53:26;101846.34;;;4.54;100.00
61018;BME280;48171;51.550;5.434;2023-01-30T00:55:53;101842.91;;;4.55;100.00
61018;BME280;48171;51.550;5.434;2023-01-30T00:58:19;101837.69;;;4.55;100.00
61018;BME280;48171;51.550;5.434;2023-01-30T01:00:45;101820.97;;;4.52;100.00
61018;BME280;48171;51.550;5.434;2023-01-30T01:03:11;101827.28;;;4.58;100.00
61018;BME280;48171;51.550;5.434;2023-01-30T01:05:37;101807.00;;;4.51;100.00
61018;BME280;48171;51.550;5.434;2023-01-30T01:08:02;101805.41;;;4.55;100.00
61018;BME280;48171;51.550;5.434;2023-01-30T01:10:28;101812.50;;;4.59;100.00
61018;BME280;48171;51.550;5.434;2023-01-30T01:12:56;101813.53;;;4.64;100.00
61018;BME280;48171;51.550;5.434;2023-01-30T01:15:25;101818.94;;;4.69;100.00
61018;BME280;48171;51.550;5.434;2023-01-30T01:17:51;101794.25;;;4.62;100.00
61018;BME280;48171;51.550;5.434;2023-01-30T01:20:18;101798.81;;;4.68;100.00
61018;BME280;48171;51.550;5.434;2023-01-30T01:22:44;101803.91;;;4.63;100.00
61018;BME280;48171;51.550;5.434;2023-01-30T01:25:10;101813.72;;;4.70;100.00
61018;BME280;48171;51.550;5.434;2023-01-30T01:27:37;101806.06;;;4.76;100.00
61018;BME280;48171;51.550;5.434;2023-01-30T01:30:03;101780.56;;;4.69;100.00
61018;BME280;48171;51.550;5.434;2023-01-30T01:32:29;101792.16;;;4.77;100.00
61018;BME280;48171;51.550;5.434;2023-01-30T01:34:55;101778.00;;;4.71;100.00
61018;BME280;48171;51.550;5.434;2023-01-30T01:37:23;101793.16;;;4.81;100.00
61018;BME280;48171;51.550;5.434;2023-01-30T01:39:49;101794.97;;;4.84;100.00
61018;BME280;48171;51.550;5.434;2023-01-30T01:42:35;101783.63;;;4.83;100.00
61018;BME280;48171;51.550;5.434;2023-01-30T01:47:53;101767.06;;;4.84;100.00
61018;BME280;48171;51.550;5.434;2023-01-30T01:50:25;101751.41;;;4.86;100.00
61018;BME280;48171;51.550;5.434;2023-01-30T01:52:51;101758.75;;;4.97;100.00
61018;BME280;48171;51.550;5.434;2023-01-30T01:55:20;101753.44;;;4.96;100.00
61018;BME280;48171;51.550;5.434;2023-01-30T01:57:53;101745.66;;;4.97;100.00
61018;BME280;48171;51.550;5.434;2023-01-30T02:00:21;101743.09;;;4.99;100.00
61018;BME280;48171;51.550;5.434;2023-01-30T02:02:55;101732.56;;;4.97;100.00
61018;BME280;48171;51.550;5.434;2023-01-30T02:05:25;101751.91;;;5.03;100.00
61018;BME280;48171;51.550;5.434;2023-01-30T02:08:07;101750.94;;;4.99;100.00
61018;BME280;48171;51.550;5.434;2023-01-30T02:11:04;101735.31;;;5.02;100.00
61018;BME280;48171;51.550;5.434;2023-01-30T02:13:33;101737.00;;;5.00;100.00
61018;BME280;48171;51.550;5.434;2023-01-30T02:16:00;101732.63;;;5.00;100.00
61018;BME280;48171;51.550;5.434;2023-01-30T02:18:27;101727.50;;;5.04;100.00
61018;BME280;48171;51.550;5.434;2023-01-30T02:31:46;101702.47;;;5.13;100.00
61018;BME280;48171;51.550;5.434;2023-01-30T02:43:07;101706.16;;;5.20;100.00
61018;BME280;48171;51.550;5.434;2023-01-30T02:48:42;101702.66;;;5.21;100.00
61018;BME280;48171;51.550;5.434;2023-01-30T02:51:21;101698.50;;;5.28;100.00
61018;BME280;48171;51.550;5.434;2023-01-30T02:53:49;101693.28;;;5.28;100.00
61018;BME280;48171;51.550;5.434;2023-01-30T02:56:15;101698.56;;;5.29;100.00
61018;BME280;48171;51.550;5.434;2023-01-30T02:58:47;101698.50;;;5.28;100.00
61018;BME280;48171;51.550;5.434;2023-01-30T03:01:38;101685.38;;;5.26;100.00
61018;BME280;48171;51.550;5.434;2023-01-30T03:12:43;101675.09;;;5.34;100.00
61018;BME280;48171;51.550;5.434;2023-01-30T03:15:21;101673.47;;;5.37;100.00
61018;BME280;48171;51.550;5.434;2023-01-30T03:17:50;101669.06;;;5.36;100.00
61018;BME280;48171;51.550;5.434;2023-01-30T03:20:18;101673.31;;;5.33;100.00
61018;BME280;48171;51.550;5.434;2023-01-30T03:22:45;101666.38;;;5.33;100.00
61018;BME280;48171;51.550;5.434;2023-01-30T03:25:14;101671.56;;;5.32;100.00
61018;BME280;48171;51.550;5.434;2023-01-30T03:27:42;101652.22;;;5.28;100.00
61018;BME280;48171;51.550;5.434;2023-01-30T03:30:09;101672.53;;;5.35;100.00
61018;BME280;48171;51.550;5.434;2023-01-30T03:32:35;101673.31;;;5.33;100.00
61018;BME280;48171;51.550;5.434;2023-01-30T03:35:00;101648.63;;;5.25;100.00
61018;BME280;48171;51.550;5.434;2023-01-30T03:37:26;101668.97;;;5.33;100.00
61018;BME280;48171;51.550;5.434;2023-01-30T03:39:52;101650.47;;;5.27;100.00
61018;BME280;48171;51.550;5.434;2023-01-30T03:42:17;101643.31;;;5.21;100.00
61018;BME280;48171;51.550;5.434;2023-01-30T03:44:43;101654.03;;;5.29;100.00
61018;BME280;48171;51.550;5.434;2023-01-30T03:47:08;101655.72;;;5.29;100.00
61018;BME280;48171;51.550;5.434;2023-01-30T03:49:34;101660.19;;;5.31;100.00
61018;BME280;48171;51.550;5.434;2023-01-30T03:51:59;101648.63;;;5.25;100.00
61018;BME280;48171;51.550;5.434;2023-01-30T03:54:25;101640.81;;;5.26;100.00
61018;BME280;48171;51.550;5.434;2023-01-30T03:56:51;101640.78;;;5.25;100.00
61018;BME280;48171;51.550;5.434;2023-01-30T03:59:16;101649.66;;;5.30;100.00
61018;BME280;48171;51.550;5.434;2023-01-30T04:01:42;101644.38;;;5.28;100.00
61018;BME280;48171;51.550;5.434;2023-01-30T04:04:09;101649.56;;;5.27;100.00
61018;BME280;48171;51.550;5.434;2023-01-30T04:06:34;101642.63;;;5.27;100.00
61018;BME280;48171;51.550;5.434;2023-01-30T04:09:00;101662.00;;;5.34;100.00
61018;BME280;48171;51.550;5.434;2023-01-30T04:11:25;101667.31;;;5.37;100.00
61018;BME280;48171;51.550;5.434;2023-01-30T04:13:51;101655.88;;;5.33;100.00
61018;BME280;48171;51.550;5.434;2023-01-30T04:16:21;101652.44;;;5.36;100.00
61018;BME280;48171;51.550;5.434;2023-01-30T04:18:47;101659.44;;;5.37;100.00
61018;BME280;48171;51.550;5.434;2023-01-30T04:21:13;101643.88;;;5.41;100.00
61018;BME280;48171;51.550;5.434;2023-01-30T04:23:39;101647.44;;;5.45;100.00
61018;BME280;48171;51.550;5.434;2023-01-30T04:26:05;101634.31;;;5.44;100.00
61018;BME280;48171;51.550;5.434;2023-01-30T04:28:31;101629.84;;;5.41;100.00
61018;BME280;48171;51.550;5.434;2023-01-30T04:30:57;101647.69;;;5.54;100.00
61018;BME280;48171;51.550;5.434;2023-01-30T04:33:22;101646.06;;;5.58;100.00
61018;BME280;48171;51.550;5.434;2023-01-30T04:35:56;101632.94;;;5.58;100.00
61018;BME280;48171;51.550;5.434;2023-01-30T04:38:23;101635.56;;;5.58;100.00
61018;BME280;48171;51.550;5.434;2023-01-30T04:40:49;101641.91;;;5.66;100.00
61018;BME280;48171;51.550;5.434;2023-01-30T04:43:15;101635.72;;;5.64;100.00
61018;BME280;48171;51.550;5.434;2023-01-30T04:45:48;101631.31;;;5.63;100.00
61018;BME280;48171;51.550;5.434;2023-01-30T04:48:14;101635.78;;;5.67;100.00
61018;BME280;48171;51.550;5.434;2023-01-30T04:50:42;101645.50;;;5.71;100.00
61018;BME280;48171;51.550;5.434;2023-01-30T04:53:08;101638.72;;;5.78;100.00
61018;BME280;48171;51.550;5.434;2023-01-30T04:55:34;101640.34;;;5.74;100.00
61018;BME280;48171;51.550;5.434;2023-01-30T04:58:00;101629.00;;;5.74;100.00
61018;BME280;48171;51.550;5.434;2023-01-30T05:00:25;101643.94;;;5.78;100.00
61018;BME280;48171;51.550;5.434;2023-01-30T05:02:51;101641.47;;;5.84;100.00
61018;BME280;48171;51.550;5.434;2023-01-30T05:05:17;101650.28;;;5.88;100.00
61018;BME280;48171;51.550;5.434;2023-01-30T05:07:42;101641.59;;;5.89;100.00
61018;BME280;48171;51.550;5.434;2023-01-30T05:10:08;101654.78;;;5.92;100.00
61018;BME280;48171;51.550;5.434;2023-01-30T05:12:34;101648.56;;;5.88;100.00
61018;BME280;48171;51.550;5.434;2023-01-30T05:15:00;101656.59;;;5.94;100.00
61018;BME280;48171;51.550;5.434;2023-01-30T05:17:26;101650.47;;;5.94;100.00
61018;BME280;48171;51.550;5.434;2023-01-30T05:19:56;101640.94;;;5.97;100.00
61018;BME280;48171;51.550;5.434;2023-01-30T05:22:21;101648.09;;;6.03;100.00
61018;BME280;48171;51.550;5.434;2023-01-30T05:24:47;101654.41;;;6.11;100.00
61018;BME280;48171;51.550;5.434;2023-01-30T05:27:12;101654.38;;;6.10;100.00
61018;BME280;48171;51.550;5.434;2023-01-30T05:29:38;101645.66;;;6.11;100.00
61018;BME280;48171;51.550;5.434;2023-01-30T05:32:04;101648.31;;;6.12;100.00
61018;BME280;48171;51.550;5.434;2023-01-30T05:34:29;101639.53;;;6.12;100.00
61018;BME280;48171;51.550;5.434;2023-01-30T05:36:55;101649.22;;;6.13;100.00
61018;BME280;48171;51.550;5.434;2023-01-30T05:39:20;101645.72;;;6.14;100.00
61018;BME280;48171;51.550;5.434;2023-01-30T05:41:46;101637.84;;;6.14;100.00
61018;BME280;48171;51.550;5.434;2023-01-30T05:44:12;101629.19;;;6.16;100.00
61018;BME280;48171;51.550;5.434;2023-01-30T05:46:38;101638.81;;;6.17;100.00
61018;BME280;48171;51.550;5.434;2023-01-30T05:49:04;101625.66;;;6.16;100.00
61018;BME280;48171;51.550;5.434;2023-01-30T05:51:32;101618.56;;;6.12;100.00
61018;BME280;48171;51.550;5.434;2023-01-30T05:53:58;101651.25;;;6.25;100.00
61018;BME280;48171;51.550;5.434;2023-01-30T05:56:23;101630.09;;;6.18;100.00
61018;BME280;48171;51.550;5.434;2023-01-30T05:58:51;101639.91;;;6.27;100.00
61018;BME280;48171;51.550;5.434;2023-01-30T06:01:17;101644.34;;;6.30;100.00
61018;BME280;48171;51.550;5.434;2023-01-30T06:03:42;101653.00;;;6.24;100.00
61018;BME280;48171;51.550;5.434;2023-01-30T06:06:09;101656.53;;;6.28;100.00
61018;BME280;48171;51.550;5.434;2023-01-30T06:08:35;101661.94;;;6.34;100.00
61018;BME280;48171;51.550;5.434;2023-01-30T06:11:12;101661.09;;;6.35;100.00
61018;BME280;48171;51.550;5.434;2023-01-30T06:13:41;101651.44;;;6.32;100.00
61018;BME280;48171;51.550;5.434;2023-01-30T06:16:09;101672.56;;;6.40;100.00
61018;BME280;48171;51.550;5.434;2023-01-30T06:18:36;101671.69;;;6.39;100.00
61018;BME280;48171;51.550;5.434;2023-01-30T06:21:02;101674.19;;;6.33;100.00
61018;BME280;48171;51.550;5.434;2023-01-30T06:23:28;101682.00;;;6.30;100.00
61018;BME280;48171;51.550;5.434;2023-01-30T06:25:53;101694.44;;;6.39;100.00
61018;BME280;48171;51.550;5.434;2023-01-30T06:28:20;101690.94;;;6.38;100.00
61018;BME280;48171;51.550;5.434;2023-01-30T06:30:50;101688.03;;;6.26;100.00
61018;BME280;48171;51.550;5.434;2023-01-30T06:33:16;101695.91;;;6.26;100.00
61018;BME280;48171;51.550;5.434;2023-01-30T06:35:42;101711.66;;;6.26;100.00
61018;BME280;48171;51.550;5.434;2023-01-30T06:38:10;101695.56;;;6.14;100.00
61018;BME280;48171;51.550;5.434;2023-01-30T06:40:43;101715.84;;;6.19;100.00
61018;BME280;48171;51.550;5.434;2023-01-30T06:43:09;101707.75;;;6.12;100.00
61018;BME280;48171;51.550;5.434;2023-01-30T06:45:35;101713.97;;;6.15;100.00
61018;BME280;48171;51.550;5.434;2023-01-30T06:48:01;101697.06;;;6.03;100.00
61018;BME280;48171;51.550;5.434;2023-01-30T06:50:29;101710.16;;;6.03;100.00
61018;BME280;48171;51.550;5.434;2023-01-30T06:52:55;101713.63;;;6.01;100.00
61018;BME280;48171;51.550;5.434;2023-01-30T06:55:25;101709.97;;;5.95;100.00
61018;BME280;48171;51.550;5.434;2023-01-30T06:58:12;101703.03;;;5.97;100.00
61018;BME280;48171;51.550;5.434;2023-01-30T07:00:40;101672.97;;;5.86;100.00
61018;BME280;48171;51.550;5.434;2023-01-30T07:03:14;101693.13;;;5.87;100.00
61018;BME280;48171;51.550;5.434;2023-01-30T07:05:41;101685.91;;;5.79;100.00
61018;BME280;48171;51.550;5.434;2023-01-30T07:08:06;101701.78;;;5.84;100.00
61018;BME280;48171;51.550;5.434;2023-01-30T07:10:36;101684.88;;;5.73;100.00
61018;BME280;48171;51.550;5.434;2023-01-30T07:13:02;101698.88;;;5.73;100.00
61018;BME280;48171;51.550;5.434;2023-01-30T07:15:28;101709.34;;;5.72;100.00
61018;BME280;48171;51.550;5.434;2023-01-30T07:17:53;101716.13;;;5.64;100.00
61018;BME280;48171;51.550;5.434;2023-01-30T07:20:19;101716.91;;;5.61;100.00
61018;BME280;48171;51.550;5.434;2023-01-30T07:22:52;101716.81;;;5.58;100.00
61018;BME280;48171;51.550;5.434;2023-01-30T07:25:19;101722.84;;;5.55;100.00
61018;BME280;48171;51.550;5.434;2023-01-30T07:28:00;101721.34;;;5.64;100.00
61018;BME280;48171;51.550;5.434;2023-01-30T07:30:28;101731.69;;;5.59;100.00
61018;BME280;48171;51.550;5.434;2023-01-30T07:32:55;101729.88;;;5.56;100.00
61018;BME280;48171;51.550;5.434;2023-01-30T07:35:23;101738.56;;;5.54;100.00
61018;BME280;48171;51.550;5.434;2023-01-30T07:37:52;101733.25;;;5.52;100.00
61018;BME280;48171;51.550;5.434;2023-01-30T07:40:20;101730.53;;;5.49;100.00
61018;BME280;48171;51.550;5.434;2023-01-30T07:43:04;101734.84;;;5.46;100.00
61018;BME280;48171;51.550;5.434;2023-01-30T07:45:40;101747.94;;;5.46;100.00
61018;BME280;48171;51.550;5.434;2023-01-30T07:48:07;101736.47;;;5.42;100.00
61018;BME280;48171;51.550;5.434;2023-01-30T07:50:34;101737.31;;;5.41;100.00
61018;BME280;48171;51.550;5.434;2023-01-30T07:53:04;101754.06;;;5.46;99.80
61018;BME280;48171;51.550;5.434;2023-01-30T07:55:30;101747.94;;;5.46;99.55
61018;BME280;48171;51.550;5.434;2023-01-30T07:57:55;101723.16;;;5.34;99.33
61018;BME280;48171;51.550;5.434;2023-01-30T08:00:21;101740.72;;;5.38;99.44
61018;BME280;48171;51.550;5.434;2023-01-30T08:02:47;101752.19;;;5.42;99.11
61018;BME280;48171;51.550;5.434;2023-01-30T08:05:12;101750.38;;;5.39;98.29
61018;BME280;48171;51.550;5.434;2023-01-30T08:07:38;101753.03;;;5.41;98.11
61018;BME280;48171;51.550;5.434;2023-01-30T08:10:04;101749.41;;;5.36;98.53
61018;BME280;48171;51.550;5.434;2023-01-30T08:12:30;101761.81;;;5.43;97.72
61018;BME280;48171;51.550;5.434;2023-01-30T08:14:56;101756.50;;;5.40;97.55
61018;BME280;48171;51.550;5.434;2023-01-30T08:17:22;101772.22;;;5.40;96.93
61018;BME280;48171;51.550;5.434;2023-01-30T08:19:47;101763.63;;;5.44;96.93
61018;BME280;48171;51.550;5.434;2023-01-30T08:22:13;101775.84;;;5.44;95.76
61018;BME280;48171;51.550;5.434;2023-01-30T08:24:39;101777.53;;;5.43;95.01
61018;BME280;48171;51.550;5.434;2023-01-30T08:27:04;101781.91;;;5.43;95.43
61018;BME280;48171;51.550;5.434;2023-01-30T08:29:30;101770.25;;;5.31;93.74
61018;BME280;48171;51.550;5.434;2023-01-30T08:31:59;101780.91;;;5.39;93.40
61018;BME280;48171;51.550;5.434;2023-01-30T08:34:25;101792.50;;;5.46;nan
61018;BME280;48171;51.550;5.434;2023-01-30T08:36:51;101779.41;;;5.46;92.66
61018;BME280;48171;51.550;5.434;2023-01-30T08:39:16;101786.28;;;5.42;92.21
61018;BME280;48171;51.550;5.434;2023-01-30T08:41:41;101783.03;;;5.51;92.34
61018;BME280;48171;51.550;5.434;2023-01-30T08:44:11;101781.28;;;5.51;91.50
61018;BME280;48171;51.550;5.434;2023-01-30T08:46:37;101794.50;;;5.54;90.93
61018;BME280;48171;51.550;5.434;2023-01-30T08:49:03;101793.72;;;5.58;90.59
61018;BME280;48171;51.550;5.434;2023-01-30T08:51:29;101802.53;;;5.60;91.37
61018;BME280;48171;51.550;5.434;2023-01-30T08:53:55;101795.41;;;5.56;91.10
61018;BME280;48171;51.550;5.434;2023-01-30T08:56:20;101795.59;;;5.63;90.71
61018;BME280;48171;51.550;5.434;2023-01-30T08:58:48;101794.78;;;5.65;90.80
61018;BME280;48171;51.550;5.434;2023-01-30T09:01:14;101804.38;;;5.65;90.95
61018;BME280;48171;51.550;5.434;2023-01-30T09:03:40;101807.00;;;5.65;90.58
61018;BME280;48171;51.550;5.434;2023-01-30T09:06:05;101812.34;;;5.68;90.74
61018;BME280;48171;51.550;5.434;2023-01-30T09:08:31;101798.31;;;5.66;90.59
61018;BME280;48171;51.550;5.434;2023-01-30T09:11:02;101818.59;;;5.73;89.62
61018;BME280;48171;51.550;5.434;2023-01-30T09:13:28;101818.72;;;5.77;90.38
61018;BME280;48171;51.550;5.434;2023-01-30T09:15:55;101823.78;;;5.71;89.97
61018;BME280;48171;51.550;5.434;2023-01-30T09:18:20;101826.75;;;5.82;89.65
61018;BME280;48171;51.550;5.434;2023-01-30T09:20:46;101834.63;;;5.84;89.96
61018;BME280;48171;51.550;5.434;2023-01-30T09:23:11;101830.19;;;5.81;89.06
61018;BME280;48171;51.550;5.434;2023-01-30T09:25:37;101825.06;;;5.84;89.52
61018;BME280;48171;51.550;5.434;2023-01-30T09:28:02;101839.28;;;5.92;89.40
61018;BME280;48171;51.550;5.434;2023-01-30T09:30:28;101831.44;;;5.94;89.19
61018;BME280;48171;51.550;5.434;2023-01-30T09:32:53;101843.78;;;5.96;89.45
61018;BME280;48171;51.550;5.434;2023-01-30T09:35:21;101817.34;;;5.90;89.06
61018;BME280;48171;51.550;5.434;2023-01-30T09:37:49;101834.91;;;5.93;89.00
61018;BME280;48171;51.550;5.434;2023-01-30T09:40:25;101853.63;;;6.05;87.32
61018;BME280;48171;51.550;5.434;2023-01-30T09:43:09;101860.69;;;6.08;88.29
61018;BME280;48171;51.550;5.434;2023-01-30T09:45:47;101855.75;;;6.18;87.61
61018;BME280;48171;51.550;5.434;2023-01-30T09:51:32;101844.56;;;6.24;87.63
61018;BME280;48171;51.550;5.434;2023-01-30T09:54:14;101864.03;;;6.32;86.66
61018;BME280;48171;51.550;5.434;2023-01-30T09:56:41;101864.03;;;6.34;86.11
61018;BME280;48171;51.550;5.434;2023-01-30T09:59:17;101868.63;;;6.41;85.58
61018;BME280;48171;51.550;5.434;2023-01-30T10:01:52;101861.72;;;6.46;86.00
61018;BME280;48171;51.550;5.434;2023-01-30T10:04:28;101863.69;;;6.53;86.42
61018;BME280;48171;51.550;5.434;2023-01-30T10:07:26;101872.81;;;6.68;86.85
61018;BME280;48171;51.550;5.434;2023-01-30T10:12:36;101886.13;;;6.75;84.12
61018;BME280;48171;51.550;5.434;2023-01-30T10:18:02;101880.06;;;6.78;84.61
61018;BME280;48171;51.550;5.434;2023-01-30T10:25:30;101896.03;;;6.86;84.87
61018;BME280;48171;51.550;5.434;2023-01-30T10:28:04;101881.88;;;6.80;84.01
61018;BME280;48171;51.550;5.434;2023-01-30T10:30:33;101879.28;;;6.82;83.57
61018;BME280;48171;51.550;5.434;2023-01-30T10:33:07;101889.06;;;6.88;83.74
61018;BME280;48171;51.550;5.434;2023-01-30T10:35:38;101887.22;;;6.84;84.53
61018;BME280;48171;51.550;5.434;2023-01-30T10:38:32;101891.66;;;6.86;83.93
61018;BME280;48171;51.550;5.434;2023-01-30T10:41:16;101899.56;;;6.88;84.79
61018;BME280;48171;51.550;5.434;2023-01-30T10:44:09;101913.78;;;6.96;82.95
61018;BME280;48171;51.550;5.434;2023-01-30T10:49:43;101914.47;;;6.89;82.13
61018;BME280;48171;51.550;5.434;2023-01-30T10:52:40;101916.38;;;6.94;81.98
61018;BME280;48171;51.550;5.434;2023-01-30T11:00:42;101915.44;;;6.91;81.72
61018;BME280;48171;51.550;5.434;2023-01-30T11:06:26;101913.69;;;6.91;79.80
61018;BME280;48171;51.550;5.434;2023-01-30T11:08:53;101914.47;;;6.87;78.96
61018;BME280;48171;51.550;5.434;2023-01-30T11:11:27;101921.56;;;6.91;80.33
61018;BME280;48171;51.550;5.434;2023-01-30T11:14:06;101910.03;;;6.86;79.53
61018;BME280;48171;51.550;5.434;2023-01-30T11:16:40;101915.50;;;6.94;79.10
61018;BME280;48171;51.550;5.434;2023-01-30T11:19:08;101907.66;;;6.95;78.50
61018;BME280;48171;51.550;5.434;2023-01-30T11:21:34;101913.94;;;7.02;79.24
61018;BME280;48171;51.550;5.434;2023-01-30T11:24:12;101912.34;;;7.09;78.06
61018;BME280;48171;51.550;5.434;2023-01-30T11:26:38;101904.34;;;7.04;77.85
61018;BME280;48171;51.550;5.434;2023-01-30T11:31:39;101913.25;;;7.11;77.49
61018;BME280;48171;51.550;5.434;2023-01-30T11:34:11;101900.06;;;7.08;77.18
61018;BME280;48171;51.550;5.434;2023-01-30T11:36:37;101907.22;;;7.13;76.93
61018;BME280;48171;51.550;5.434;2023-01-30T11:39:18;101902.94;;;7.18;77.32
61018;BME280;48171;51.550;5.434;2023-01-30T11:44:17;101913.47;;;7.18;76.70
61018;BME280;48171;51.550;5.434;2023-01-30T11:46:43;101923.00;;;7.15;77.23
61018;BME280;48171;51.550;5.434;2023-01-30T11:49:17;101935.34;;;7.17;76.45
61018;BME280;48171;51.550;5.434;2023-01-30T11:51:45;101922.16;;;7.16;76.96
61018;BME280;48171;51.550;5.434;2023-01-30T11:54:15;101937.16;;;7.20;77.64
61018;BME280;48171;51.550;5.434;2023-01-30T11:56:49;101925.00;;;7.24;77.09
61018;BME280;48171;51.550;5.434;2023-01-30T11:59:27;101912.47;;;7.13;77.77
61018;BME280;48171;51.550;5.434;2023-01-30T12:04:59;101926.69;;;7.21;77.22
61018;BME280;48171;51.550;5.434;2023-01-30T12:07:27;101933.66;;;7.21;76.79
61018;BME280;48171;51.550;5.434;2023-01-30T12:09:54;101935.50;;;7.24;76.95
61018;BME280;48171;51.550;5.434;2023-01-30T12:12:30;101933.91;;;7.30;75.88
61018;BME280;48171;51.550;5.434;2023-01-30T12:17:48;101930.50;;;7.34;76.33
61018;BME280;48171;51.550;5.434;2023-01-30T12:20:45;101918.22;;;7.35;75.67
61018;BME280;48171;51.550;5.434;2023-01-30T12:23:37;101919.94;;;7.33;76.18
61018;BME280;48171;51.550;5.434;2023-01-30T12:26:23;101910.19;;;7.29;75.40
61018;BME280;48171;51.550;5.434;2023-01-30T12:28:55;101917.97;;;7.24;75.33
61018;BME280;48171;51.550;5.434;2023-01-30T12:34:23;101910.78;;;7.15;75.61
61018;BME280;48171;51.550;5.434;2023-01-30T12:37:26;101939.75;;;7.18;76.32
61018;BME280;48171;51.550;5.434;2023-01-30T12:39:54;101930.09;;;7.19;75.93
61018;BME280;48171;51.550;5.434;2023-01-30T12:56:14;101960.38;;;7.38;76.27
61018;BME280;48171;51.550;5.434;2023-01-30T12:58:59;101955.16;;;7.39;76.15
61018;BME280;48171;51.550;5.434;2023-01-30T13:01:43;101948.91;;;7.34;75.83
61018;BME280;48171;51.550;5.434;2023-01-30T13:07:23;101972.75;;;7.42;75.03
61018;BME280;48171;51.550;5.434;2023-01-30T13:12:42;101973.47;;;7.36;74.30
61018;BME280;48171;51.550;5.434;2023-01-30T13:15:44;101977.09;;;7.40;73.83
61018;BME280;48171;51.550;5.434;2023-01-30T13:26:44;101971.69;;;7.34;74.49
61018;BME280;48171;51.550;5.434;2023-01-30T13:31:48;101982.25;;;7.35;74.25
61018;BME280;48171;51.550;5.434;2023-01-30T13:34:34;101998.19;;;7.43;73.53
61018;BME280;48171;51.550;5.434;2023-01-30T13:37:12;101988.41;;;7.37;72.81
61018;BME280;48171;51.550;5.434;2023-01-30T13:39:47;101980.50;;;7.36;73.31
61018;BME280;48171;51.550;5.434;2023-01-30T13:45:03;101987.44;;;7.34;72.10
61018;BME280;48171;51.550;5.434;2023-01-30T13:47:45;101994.47;;;7.35;71.37
61018;BME280;48171;51.550;5.434;2023-01-30T13:50:28;102003.41;;;7.41;71.87
61018;BME280;48171;51.550;5.434;2023-01-30T13:53:08;102009.44;;;7.37;71.90
61018;BME280;48171;51.550;5.434;2023-01-30T13:58:54;102014.00;;;7.45;72.29
61018;BME280;48171;51.550;5.434;2023-01-30T14:01:21;102019.19;;;7.41;72.02
61018;BME280;48171;51.550;5.434;2023-01-30T14:03:47;102011.16;;;7.37;72.30
61018;BME280;48171;51.550;5.434;2023-01-30T14:08:50;102033.13;;;7.37;72.99
61018;BME280;48171;51.550;5.434;2023-01-30T14:11:31;102041.94;;;7.41;73.49
61018;BME280;48171;51.550;5.434;2023-01-30T14:14:02;102032.19;;;7.35;72.94
61018;BME280;48171;51.550;5.434;2023-01-30T14:16:42;102036.53;;;7.35;73.59
61018;BME280;48171;51.550;5.434;2023-01-30T14:19:31;102039.22;;;7.36;73.74
61018;BME280;48171;51.550;5.434;2023-01-30T14:22:29;102047.03;;;7.33;73.85
61018;BME280;48171;51.550;5.434;2023-01-30T14:32:55;102054.72;;;7.26;73.81
61018;BME280;48171;51.550;5.434;2023-01-30T14:35:23;102072.31;;;7.28;74.42
61018;BME280;48171;51.550;5.434;2023-01-30T14:37:50;102092.44;;;7.28;75.22
61018;BME280;48171;51.550;5.434;2023-01-30T14:40:30;102080.91;;;7.22;74.99
61018;BME280;48171;51.550;5.434;2023-01-30T14:45:59;102107.19;;;7.22;75.46
61018;BME280;48171;51.550;5.434;2023-01-30T14:51:41;102123.81;;;7.21;75.39
61018;BME280;48171;51.550;5.434;2023-01-30T14:56:55;102118.53;;;7.20;76.07
61018;BME280;48171;51.550;5.434;2023-01-30T14:59:45;102120.13;;;7.15;76.15
61018;BME280;48171;51.550;5.434;2023-01-30T15:07:25;102136.81;;;7.17;75.94
61018;BME280;48171;51.550;5.434;2023-01-30T15:10:18;102152.75;;;7.21;76.25
61018;BME280;48171;51.550;5.434;2023-01-30T15:12:56;102156.31;;;7.24;76.49
61018;BME280;48171;51.550;5.434;2023-01-30T15:32:43;102179.75;;;7.16;77.70
61018;BME280;48171;51.550;5.434;2023-01-30T15:37:49;102185.81;;;7.13;76.68
61018;BME280;48171;51.550;5.434;2023-01-30T15:42:49;102193.50;;;7.07;76.64
61018;BME280;48171;51.550;5.434;2023-01-30T15:48:26;102188.84;;;6.98;77.07
61018;BME280;48171;51.550;5.434;2023-01-30T15:50:57;102205.63;;;7.02;76.64